sensor_id;sensor_type;location;lat;lon;timestamp;pressure;altitude;pressure_sealevel;temperature;humidity
23446;BME280;11895;48.738;9.320;2023-05-16T00:02:04;98432.69;;;13.92;100.00
23446;BME280;11895;48.738;9.320;2023-05-16T00:04:32;98434.84;;;13.87;100.00
23446;BME280;11895;48.738;9.320;2023-05-16T00:07:00;98435.25;;;13.81;100.00
23446;BME280;11895;48.738;9.320;2023-05-16T00:09:27;98441.72;;;13.51;100.00
23446;BME280;11895;48.738;9.320;2023-05-16T00:11:55;98436.09;;;13.54;100.00
23446;BME280;11895;48.738;9.320;2023-05-16T00:14:23;98432.81;;;13.63;100.00
23446;BME280;11895;48.738;9.320;2023-05-16T00:16:52;98440.13;;;13.61;100.00
23446;BME280;11895;48.738;9.320;2023-05-16T00:19:20;98438.41;;;13.60;100.00
23446;BME280;11895;48.738;9.320;2023-05-16T00:21:47;98439.72;;;13.68;100.00
23446;BME280;11895;48.738;9.320;2023-05-16T00:24:15;98437.59;;;13.73;100.00
23446;BME280;11895;48.738;9.320;2023-05-16T00:26:43;98439.25;;;13.75;100.00
23446;BME280;11895;48.738;9.320;2023-05-16T00:29:11;98444.97;;;13.71;100.00
23446;BME280;11895;48.738;9.320;2023-05-16T00:31:39;98441.50;;;13.69;100.00
23446;BME280;11895;48.738;9.320;2023-05-16T00:34:06;98441.69;;;13.66;100.00
23446;BME280;11895;48.738;9.320;2023-05-16T00:36:34;98434.88;;;13.73;100.00
23446;BME280;11895;48.738;9.320;2023-05-16T00:39:02;98436.53;;;13.75;100.00
23446;BME280;11895;48.738;9.320;2023-05-16T00:41:30;98435.84;;;13.72;100.00
23446;BME280;11895;48.738;9.320;2023-05-16T00:43:58;98443.22;;;13.70;100.00
23446;BME280;11895;48.738;9.320;2023-05-16T00:46:26;98439.44;;;13.72;100.00
23446;BME280;11895;48.738;9.320;2023-05-16T00:48:53;98433.94;;;13.74;100.00
23446;BME280;11895;48.738;9.320;2023-05-16T00:51:21;98420.91;;;13.66;100.00
23446;BME280;11895;48.738;9.320;2023-05-16T00:53:48;98431.31;;;13.72;100.00
23446;BME280;11895;48.738;9.320;2023-05-16T00:56:17;98429.09;;;13.79;100.00
23446;BME280;11895;48.738;9.320;2023-05-16T00:58:44;98428.72;;;13.71;100.00
23446;BME280;11895;48.738;9.320;2023-05-16T01:01:12;98429.69;;;13.70;100.00
23446;BME280;11895;48.738;9.320;2023-05-16T01:03:41;98427.59;;;13.60;100.00
23446;BME280;11895;48.738;9.320;2023-05-16T01:06:12;98428.34;;;13.62;100.00
23446;BME280;11895;48.738;9.320;2023-05-16T01:08:40;98427.28;;;13.65;100.00
23446;BME280;11895;48.738;9.320;2023-05-16T01:11:21;98421.50;;;13.57;100.00
23446;BME280;11895;48.738;9.320;2023-05-16T01:14:24;98426.97;;;13.70;100.00
23446;BME280;11895;48.738;9.320;2023-05-16T01:20:03;98426.13;;;13.69;100.00
23446;BME280;11895;48.738;9.320;2023-05-16T01:23:04;98421.97;;;13.63;100.00
23446;BME280;11895;48.738;9.320;2023-05-16T01:28:24;98416.94;;;13.57;100.00
23446;BME280;11895;48.738;9.320;2023-05-16T01:30:53;98413.47;;;13.55;100.00
23446;BME280;11895;48.738;9.320;2023-05-16T01:33:21;98422.56;;;13.54;100.00
23446;BME280;11895;48.738;9.320;2023-05-16T01:43:13;98431.59;;;13.26;100.00
23446;BME280;11895;48.738;9.320;2023-05-16T01:49:57;98440.28;;;13.46;100.00
23446;BME280;11895;48.738;9.320;2023-05-16T01:56:17;98434.72;;;13.04;100.00
23446;BME280;11895;48.738;9.320;2023-05-16T02:02:40;98430.16;;;13.35;100.00
23446;BME280;11895;48.738;9.320;2023-05-16T02:08:51;98435.81;;;13.16;100.00
23446;BME280;11895;48.738;9.320;2023-05-16T02:33:49;98437.44;;;13.47;100.00
23446;BME280;11895;48.738;9.320;2023-05-16T02:40:03;98453.34;;;13.25;100.00
23446;BME280;11895;48.738;9.320;2023-05-16T02:42:35;98439.78;;;13.39;100.00
23446;BME280;11895;48.738;9.320;2023-05-16T02:45:03;98432.44;;;13.41;100.00
23446;BME280;11895;48.738;9.320;2023-05-16T02:47:31;98433.59;;;13.51;100.00
23446;BME280;11895;48.738;9.320;2023-05-16T02:49:59;98434.75;;;13.47;100.00
23446;BME280;11895;48.738;9.320;2023-05-16T02:52:26;98440.28;;;13.46;100.00
23446;BME280;11895;48.738;9.320;2023-05-16T02:54:53;98433.41;;;13.54;100.00
23446;BME280;11895;48.738;9.320;2023-05-16T02:57:41;98432.59;;;13.67;100.00
23446;BME280;11895;48.738;9.320;2023-05-16T03:00:12;98435.13;;;13.55;100.00
23446;BME280;11895;48.738;9.320;2023-05-16T03:02:42;98433.00;;;13.60;100.00
23446;BME280;11895;48.738;9.320;2023-05-16T03:05:10;98428.75;;;13.42;100.00
23446;BME280;11895;48.738;9.320;2023-05-16T03:07:38;98437.06;;;13.39;100.00
23446;BME280;11895;48.738;9.320;2023-05-16T03:10:06;98437.28;;;13.22;100.00
23446;BME280;11895;48.738;9.320;2023-05-16T03:12:33;98433.41;;;13.40;100.00
23446;BME280;11895;48.738;9.320;2023-05-16T03:15:01;98432.34;;;13.28;100.00
23446;BME280;11895;48.738;9.320;2023-05-16T03:17:28;98430.44;;;13.30;100.00
23446;BME280;11895;48.738;9.320;2023-05-16T03:19:56;98433.59;;;13.23;100.00
23446;BME280;11895;48.738;9.320;2023-05-16T03:22:23;98437.97;;;13.25;100.00
23446;BME280;11895;48.738;9.320;2023-05-16T03:24:51;98434.97;;;13.30;100.00
23446;BME280;11895;48.738;9.320;2023-05-16T03:27:18;98444.31;;;13.24;100.00
23446;BME280;11895;48.738;9.320;2023-05-16T03:29:45;98448.09;;;13.22;100.00
23446;BME280;11895;48.738;9.320;2023-05-16T03:32:13;98451.22;;;13.30;100.00
23446;BME280;11895;48.738;9.320;2023-05-16T03:34:41;98449.72;;;13.24;100.00
23446;BME280;11895;48.738;9.320;2023-05-16T03:37:08;98451.19;;;13.16;100.00
23446;BME280;11895;48.738;9.320;2023-05-16T03:39:37;98449.41;;;13.15;100.00
23446;BME280;11895;48.738;9.320;2023-05-16T03:42:04;98451.81;;;13.05;100.00
23446;BME280;11895;48.738;9.320;2023-05-16T03:44:34;98449.50;;;13.13;100.00
23446;BME280;11895;48.738;9.320;2023-05-16T03:47:02;98450.38;;;13.13;100.00
23446;BME280;11895;48.738;9.320;2023-05-16T03:49:29;98443.44;;;13.24;100.00
23446;BME280;11895;48.738;9.320;2023-05-16T03:51:56;98446.41;;;13.19;100.00
23446;BME280;11895;48.738;9.320;2023-05-16T03:54:24;98440.34;;;13.16;100.00
23446;BME280;11895;48.738;9.320;2023-05-16T03:56:51;98437.88;;;13.27;100.00
23446;BME280;11895;48.738;9.320;2023-05-16T03:59:18;98454.47;;;13.21;100.00
23446;BME280;11895;48.738;9.320;2023-05-16T04:01:46;98445.56;;;13.33;100.00
23446;BME280;11895;48.738;9.320;2023-05-16T04:04:13;98445.56;;;13.33;100.00
23446;BME280;11895;48.738;9.320;2023-05-16T04:06:41;98453.91;;;13.30;100.00
23446;BME280;11895;48.738;9.320;2023-05-16T04:09:08;98453.41;;;13.37;100.00
23446;BME280;11895;48.738;9.320;2023-05-16T04:11:36;98466.25;;;13.48;100.00
23446;BME280;11895;48.738;9.320;2023-05-16T04:14:04;98459.59;;;13.54;100.00
23446;BME280;11895;48.738;9.320;2023-05-16T04:16:32;98461.97;;;13.58;100.00
23446;BME280;11895;48.738;9.320;2023-05-16T04:19:05;98474.16;;;13.66;100.00
23446;BME280;11895;48.738;9.320;2023-05-16T04:21:33;98469.22;;;13.72;100.00
23446;BME280;11895;48.738;9.320;2023-05-16T04:24:01;98476.84;;;13.80;100.00
23446;BME280;11895;48.738;9.320;2023-05-16T04:26:29;98475.47;;;13.87;100.00
23446;BME280;11895;48.738;9.320;2023-05-16T04:29:02;98479.00;;;14.02;100.00
23446;BME280;11895;48.738;9.320;2023-05-16T04:31:30;98477.69;;;13.95;100.00
23446;BME280;11895;48.738;9.320;2023-05-16T04:33:58;98473.75;;;14.13;100.00
23446;BME280;11895;48.738;9.320;2023-05-16T04:36:25;98477.75;;;14.07;100.00
23446;BME280;11895;48.738;9.320;2023-05-16T04:38:56;98477.84;;;14.06;100.00
23446;BME280;11895;48.738;9.320;2023-05-16T04:41:23;98473.34;;;14.19;100.00
23446;BME280;11895;48.738;9.320;2023-05-16T04:43:51;98468.44;;;14.38;100.00
23446;BME280;11895;48.738;9.320;2023-05-16T04:46:19;98462.31;;;14.22;100.00
23446;BME280;11895;48.738;9.320;2023-05-16T04:48:47;98465.06;;;14.08;100.00
23446;BME280;11895;48.738;9.320;2023-05-16T04:51:14;98472.06;;;14.25;100.00
23446;BME280;11895;48.738;9.320;2023-05-16T04:53:41;98468.31;;;14.40;100.00
23446;BME280;11895;48.738;9.320;2023-05-16T04:56:08;98469.56;;;14.49;100.00
23446;BME280;11895;48.738;9.320;2023-05-16T04:58:36;98464.69;;;14.54;100.00
23446;BME280;11895;48.738;9.320;2023-05-16T05:01:03;98452.88;;;14.55;100.00
23446;BME280;11895;48.738;9.320;2023-05-16T05:03:31;98455.09;;;14.62;100.00
23446;BME280;11895;48.738;9.320;2023-05-16T05:05:59;98450.97;;;14.70;100.00
23446;BME280;11895;48.738;9.320;2023-05-16T05:08:26;98450.97;;;14.70;100.00
23446;BME280;11895;48.738;9.320;2023-05-16T05:10:55;98454.34;;;14.60;100.00
23446;BME280;11895;48.738;9.320;2023-05-16T05:13:23;98464.50;;;14.70;100.00
23446;BME280;11895;48.738;9.320;2023-05-16T05:15:50;98465.72;;;14.65;100.00
23446;BME280;11895;48.738;9.320;2023-05-16T05:18:18;98467.03;;;14.73;100.00
23446;BME280;11895;48.738;9.320;2023-05-16T05:20:45;98466.59;;;14.66;100.00
23446;BME280;11895;48.738;9.320;2023-05-16T05:23:14;98474.97;;;14.76;100.00
23446;BME280;11895;48.738;9.320;2023-05-16T05:25:43;98485.81;;;14.76;100.00
23446;BME280;11895;48.738;9.320;2023-05-16T05:28:10;98483.50;;;14.70;100.00
23446;BME280;11895;48.738;9.320;2023-05-16T05:30:38;98496.47;;;15.04;100.00
23446;BME280;11895;48.738;9.320;2023-05-16T05:33:14;98495.06;;;15.11;100.00
23446;BME280;11895;48.738;9.320;2023-05-16T05:35:44;98499.97;;;15.19;100.00
23446;BME280;11895;48.738;9.320;2023-05-16T05:38:12;98497.56;;;15.27;100.00
23446;BME280;11895;48.738;9.320;2023-05-16T05:40:39;98495.94;;;14.99;100.00
23446;BME280;11895;48.738;9.320;2023-05-16T05:43:07;98500.69;;;15.08;100.00
23446;BME280;11895;48.738;9.320;2023-05-16T05:45:35;98497.50;;;14.89;100.00
23446;BME280;11895;48.738;9.320;2023-05-16T05:48:03;98500.91;;;15.18;100.00
23446;BME280;11895;48.738;9.320;2023-05-16T05:50:31;98495.16;;;15.23;100.00
23446;BME280;11895;48.738;9.320;2023-05-16T05:52:58;98503.00;;;15.14;100.00
23446;BME280;11895;48.738;9.320;2023-05-16T05:55:26;98503.72;;;15.42;100.00
23446;BME280;11895;48.738;9.320;2023-05-16T05:57:54;98494.63;;;15.43;100.00
23446;BME280;11895;48.738;9.320;2023-05-16T06:00:24;98500.38;;;15.51;100.00
23446;BME280;11895;48.738;9.320;2023-05-16T06:02:52;98505.28;;;15.33;100.00
23446;BME280;11895;48.738;9.320;2023-05-16T06:05:20;98502.00;;;15.41;100.00
23446;BME280;11895;48.738;9.320;2023-05-16T06:07:48;98500.28;;;15.53;100.00
23446;BME280;11895;48.738;9.320;2023-05-16T06:10:17;98501.75;;;15.57;100.00
23446;BME280;11895;48.738;9.320;2023-05-16T06:12:45;98500.69;;;15.47;100.00
23446;BME280;11895;48.738;9.320;2023-05-16T06:15:13;98509.41;;;15.64;100.00
23446;BME280;11895;48.738;9.320;2023-05-16T06:17:40;98505.72;;;15.53;100.00
23446;BME280;11895;48.738;9.320;2023-05-16T06:20:08;98516.91;;;15.74;100.00
23446;BME280;11895;48.738;9.320;2023-05-16T06:22:36;98504.97;;;16.00;100.00
23446;BME280;11895;48.738;9.320;2023-05-16T06:25:04;98509.59;;;15.87;100.00
23446;BME280;11895;48.738;9.320;2023-05-16T06:27:32;98512.59;;;15.95;100.00
23446;BME280;11895;48.738;9.320;2023-05-16T06:30:00;98519.16;;;15.80;100.00
23446;BME280;11895;48.738;9.320;2023-05-16T06:32:30;98522.56;;;16.07;100.00
23446;BME280;11895;48.738;9.320;2023-05-16T06:34:57;98516.69;;;16.13;100.00
23446;BME280;11895;48.738;9.320;2023-05-16T06:37:25;98518.25;;;16.29;100.00
23446;BME280;11895;48.738;9.320;2023-05-16T06:39:52;98522.75;;;16.30;100.00
23446;BME280;11895;48.738;9.320;2023-05-16T06:42:20;98519.59;;;16.47;100.00
23446;BME280;11895;48.738;9.320;2023-05-16T06:44:49;98520.59;;;16.46;100.00
23446;BME280;11895;48.738;9.320;2023-05-16T06:47:17;98526.53;;;16.51;100.00
23446;BME280;11895;48.738;9.320;2023-05-16T06:49:44;98527.47;;;16.39;100.00
23446;BME280;11895;48.738;9.320;2023-05-16T06:52:11;98519.59;;;16.47;100.00
23446;BME280;11895;48.738;9.320;2023-05-16T06:54:38;98523.88;;;16.62;100.00
23446;BME280;11895;48.738;9.320;2023-05-16T06:57:06;98529.09;;;16.65;100.00
23446;BME280;11895;48.738;9.320;2023-05-16T06:59:34;98523.00;;;16.75;100.00
23446;BME280;11895;48.738;9.320;2023-05-16T07:02:02;98519.59;;;16.95;100.00
23446;BME280;11895;48.738;9.320;2023-05-16T07:04:30;98521.59;;;16.93;100.00
23446;BME280;11895;48.738;9.320;2023-05-16T07:06:58;98531.28;;;17.08;100.00
23446;BME280;11895;48.738;9.320;2023-05-16T07:09:26;98521.41;;;17.18;100.00
23446;BME280;11895;48.738;9.320;2023-05-16T07:11:54;98518.44;;;17.21;100.00
23446;BME280;11895;48.738;9.320;2023-05-16T07:14:22;98517.47;;;17.34;100.00
23446;BME280;11895;48.738;9.320;2023-05-16T07:16:49;98509.66;;;17.18;100.00
23446;BME280;11895;48.738;9.320;2023-05-16T07:19:17;98506.81;;;17.31;100.00
23446;BME280;11895;48.738;9.320;2023-05-16T07:21:46;98510.50;;;17.07;100.00
23446;BME280;11895;48.738;9.320;2023-05-16T07:24:14;98503.81;;;17.80;100.00
23446;BME280;11895;48.738;9.320;2023-05-16T07:26:43;98510.81;;;17.38;100.00
23446;BME280;11895;48.738;9.320;2023-05-16T07:29:11;98522.50;;;17.73;100.00
23446;BME280;11895;48.738;9.320;2023-05-16T07:31:38;98512.81;;;18.03;100.00
23446;BME280;11895;48.738;9.320;2023-05-16T07:34:06;98518.56;;;17.20;100.00
23446;BME280;11895;48.738;9.320;2023-05-16T07:36:34;98516.63;;;17.44;100.00
23446;BME280;11895;48.738;9.320;2023-05-16T07:39:01;98513.81;;;17.91;100.00
23446;BME280;11895;48.738;9.320;2023-05-16T07:41:30;98522.50;;;17.96;100.00
23446;BME280;11895;48.738;9.320;2023-05-16T07:43:58;98527.63;;;18.44;100.00
23446;BME280;11895;48.738;9.320;2023-05-16T07:46:25;98522.88;;;18.57;100.00
23446;BME280;11895;48.738;9.320;2023-05-16T07:48:53;98524.84;;;18.55;100.00
23446;BME280;11895;48.738;9.320;2023-05-16T07:51:20;98535.28;;;18.93;100.00
23446;BME280;11895;48.738;9.320;2023-05-16T07:53:47;98543.63;;;18.92;100.00
23446;BME280;11895;48.738;9.320;2023-05-16T07:56:15;98547.72;;;18.43;100.00
23446;BME280;11895;48.738;9.320;2023-05-16T07:58:42;98551.84;;;18.81;100.00
23446;BME280;11895;48.738;9.320;2023-05-16T08:01:10;98553.22;;;18.75;100.00
23446;BME280;11895;48.738;9.320;2023-05-16T08:03:38;98551.19;;;18.88;100.00
23446;BME280;11895;48.738;9.320;2023-05-16T08:06:06;98553.53;;;18.27;100.00
23446;BME280;11895;48.738;9.320;2023-05-16T08:08:34;98557.06;;;18.61;100.00
23446;BME280;11895;48.738;9.320;2023-05-16T08:11:21;98561.72;;;18.93;100.00
23446;BME280;11895;48.738;9.320;2023-05-16T08:14:07;98549.78;;;19.05;100.00
23446;BME280;11895;48.738;9.320;2023-05-16T08:16:34;98555.84;;;19.30;100.00
23446;BME280;11895;48.738;9.320;2023-05-16T08:19:01;98559.63;;;19.17;100.00
23446;BME280;11895;48.738;9.320;2023-05-16T08:21:29;98561.31;;;18.54;100.00
23446;BME280;11895;48.738;9.320;2023-05-16T08:23:57;98562.09;;;18.22;100.00
23446;BME280;11895;48.738;9.320;2023-05-16T08:26:25;98563.75;;;17.80;100.00
23446;BME280;11895;48.738;9.320;2023-05-16T08:28:53;98569.31;;;18.01;100.00
23446;BME280;11895;48.738;9.320;2023-05-16T08:31:20;98575.59;;;17.79;100.00
23446;BME280;11895;48.738;9.320;2023-05-16T08:33:47;98572.22;;;17.64;100.00
23446;BME280;11895;48.738;9.320;2023-05-16T08:36:15;98579.03;;;17.59;100.00
23446;BME280;11895;48.738;9.320;2023-05-16T08:38:45;98568.41;;;17.20;100.00
23446;BME280;11895;48.738;9.320;2023-05-16T08:41:13;98586.00;;;17.28;100.00
23446;BME280;11895;48.738;9.320;2023-05-16T08:43:40;98580.81;;;17.25;100.00
23446;BME280;11895;48.738;9.320;2023-05-16T08:46:08;98580.22;;;17.43;100.00
23446;BME280;11895;48.738;9.320;2023-05-16T08:48:36;98584.25;;;16.91;100.00
23446;BME280;11895;48.738;9.320;2023-05-16T08:51:07;98586.06;;;16.67;100.00
23446;BME280;11895;48.738;9.320;2023-05-16T08:53:55;98581.97;;;16.61;100.00
23446;BME280;11895;48.738;9.320;2023-05-16T08:56:33;98585.59;;;16.25;100.00
23446;BME280;11895;48.738;9.320;2023-05-16T08:59:08;98590.53;;;16.44;100.00
23446;BME280;11895;48.738;9.320;2023-05-16T09:01:37;98593.06;;;16.58;100.00
23446;BME280;11895;48.738;9.320;2023-05-16T09:04:07;98590.28;;;16.84;100.00
23446;BME280;11895;48.738;9.320;2023-05-16T09:06:36;98593.41;;;16.90;100.00
23446;BME280;11895;48.738;9.320;2023-05-16T09:09:04;98608.03;;;16.77;100.00
23446;BME280;11895;48.738;9.320;2023-05-16T09:11:34;98596.72;;;16.83;100.00
23446;BME280;11895;48.738;9.320;2023-05-16T09:14:03;98597.81;;;16.67;100.00
23446;BME280;11895;48.738;9.320;2023-05-16T09:16:31;98594.34;;;16.78;100.00
23446;BME280;11895;48.738;9.320;2023-05-16T09:19:00;98593.72;;;16.75;100.00
23446;BME280;11895;48.738;9.320;2023-05-16T09:21:34;98595.97;;;16.68;100.00
23446;BME280;11895;48.738;9.320;2023-05-16T09:24:07;98596.94;;;16.80;100.00
23446;BME280;11895;48.738;9.320;2023-05-16T09:26:37;98589.53;;;16.82;100.00
23446;BME280;11895;48.738;9.320;2023-05-16T09:29:12;98597.59;;;16.83;100.00
23446;BME280;11895;48.738;9.320;2023-05-16T09:31:41;98598.03;;;17.01;100.00
23446;BME280;11895;48.738;9.320;2023-05-16T09:34:09;98597.56;;;17.07;100.00
23446;BME280;11895;48.738;9.320;2023-05-16T09:36:39;98601.06;;;17.20;100.00
23446;BME280;11895;48.738;9.320;2023-05-16T09:39:09;98595.56;;;16.98;100.00
23446;BME280;11895;48.738;9.320;2023-05-16T09:41:51;98600.31;;;16.70;100.00
23446;BME280;11895;48.738;9.320;2023-05-16T09:44:18;98609.63;;;16.55;100.00
23446;BME280;11895;48.738;9.320;2023-05-16T09:46:45;98618.47;;;16.46;100.00
23446;BME280;11895;48.738;9.320;2023-05-16T09:49:13;98620.78;;;16.27;100.00
23446;BME280;11895;48.738;9.320;2023-05-16T09:51:40;98617.34;;;15.99;100.00
23446;BME280;11895;48.738;9.320;2023-05-16T09:54:08;98619.75;;;15.65;100.00
23446;BME280;11895;48.738;9.320;2023-05-16T09:56:48;98616.34;;;15.49;100.00
23446;BME280;11895;48.738;9.320;2023-05-16T09:59:16;98618.00;;;15.64;100.00
23446;BME280;11895;48.738;9.320;2023-05-16T10:01:44;98615.19;;;15.66;100.00
23446;BME280;11895;48.738;9.320;2023-05-16T10:04:13;98609.47;;;15.31;100.00
23446;BME280;11895;48.738;9.320;2023-05-16T10:06:43;98614.72;;;15.59;100.00
23446;BME280;11895;48.738;9.320;2023-05-16T10:09:13;98613.22;;;15.81;100.00
23446;BME280;11895;48.738;9.320;2023-05-16T10:11:42;98607.25;;;16.01;100.00
23446;BME280;11895;48.738;9.320;2023-05-16T10:14:12;98606.47;;;16.25;100.00
23446;BME280;11895;48.738;9.320;2023-05-16T10:16:46;98599.66;;;16.43;100.00
23446;BME280;11895;48.738;9.320;2023-05-16T10:19:19;98604.84;;;16.59;100.00
23446;BME280;11895;48.738;9.320;2023-05-16T10:21:53;98604.59;;;16.75;100.00
23446;BME280;11895;48.738;9.320;2023-05-16T10:24:28;98600.09;;;16.50;100.00
23446;BME280;11895;48.738;9.320;2023-05-16T10:27:00;98606.97;;;16.66;100.00
23446;BME280;11895;48.738;9.320;2023-05-16T10:29:29;98601.16;;;16.47;100.00
23446;BME280;11895;48.738;9.320;2023-05-16T10:32:13;98598.25;;;16.37;100.00
23446;BME280;11895;48.738;9.320;2023-05-16T10:34:42;98601.53;;;16.66;100.00
23446;BME280;11895;48.738;9.320;2023-05-16T10:37:09;98614.25;;;16.29;100.00
23446;BME280;11895;48.738;9.320;2023-05-16T10:39:38;98605.25;;;16.65;100.00
23446;BME280;11895;48.738;9.320;2023-05-16T10:42:06;98597.94;;;16.79;100.00
23446;BME280;11895;48.738;9.320;2023-05-16T10:44:37;98597.97;;;16.90;100.00
23446;BME280;11895;48.738;9.320;2023-05-16T10:47:07;98606.31;;;17.00;100.00
23446;BME280;11895;48.738;9.320;2023-05-16T10:49:40;98602.25;;;17.05;100.00
23446;BME280;11895;48.738;9.320;2023-05-16T10:52:12;98612.09;;;16.95;100.00
23446;BME280;11895;48.738;9.320;2023-05-16T10:54:51;98610.94;;;17.10;100.00
23446;BME280;11895;48.738;9.320;2023-05-16T10:57:22;98611.09;;;17.20;100.00
23446;BME280;11895;48.738;9.320;2023-05-16T10:59:51;98617.81;;;17.27;100.00
23446;BME280;11895;48.738;9.320;2023-05-16T11:02:40;98615.13;;;17.38;100.00
23446;BME280;11895;48.738;9.320;2023-05-16T11:05:17;98610.31;;;17.07;100.00
23446;BME280;11895;48.738;9.320;2023-05-16T11:08:04;98620.91;;;17.23;100.00
23446;BME280;11895;48.738;9.320;2023-05-16T11:10:32;98613.47;;;17.25;100.00
23446;BME280;11895;48.738;9.320;2023-05-16T11:13:08;98620.50;;;17.51;100.00
23446;BME280;11895;48.738;9.320;2023-05-16T11:15:35;98615.06;;;17.62;100.00
23446;BME280;11895;48.738;9.320;2023-05-16T11:18:14;98621.09;;;17.55;100.00
23446;BME280;11895;48.738;9.320;2023-05-16T11:20:42;98612.56;;;17.59;100.00
23446;BME280;11895;48.738;9.320;2023-05-16T11:25:54;98610.44;;;17.87;100.00
23446;BME280;11895;48.738;9.320;2023-05-16T11:28:26;98614.88;;;17.77;100.00
23446;BME280;11895;48.738;9.320;2023-05-16T11:30:57;98618.97;;;17.82;100.00
23446;BME280;11895;48.738;9.320;2023-05-16T11:33:26;98621.03;;;17.67;100.00
23446;BME280;11895;48.738;9.320;2023-05-16T11:36:05;98625.25;;;17.71;100.00
23446;BME280;11895;48.738;9.320;2023-05-16T11:38:42;98627.44;;;17.55;100.00
23446;BME280;11895;48.738;9.320;2023-05-16T11:41:10;98631.75;;;17.46;100.00
23446;BME280;11895;48.738;9.320;2023-05-16T11:43:43;98635.00;;;17.28;100.00
23446;BME280;11895;48.738;9.320;2023-05-16T11:46:14;98634.38;;;17.24;100.00
23446;BME280;11895;48.738;9.320;2023-05-16T11:48:42;98632.47;;;17.13;100.00
23446;BME280;11895;48.738;9.320;2023-05-16T11:51:11;98638.25;;;17.33;100.00
23446;BME280;11895;48.738;9.320;2023-05-16T11:53:40;98642.59;;;16.87;100.00
23446;BME280;11895;48.738;9.320;2023-05-16T11:56:08;98634.56;;;16.86;100.00
23446;BME280;11895;48.738;9.320;2023-05-16T11:58:36;98640.00;;;16.86;100.00
23446;BME280;11895;48.738;9.320;2023-05-16T12:01:04;98641.00;;;16.85;100.00
23446;BME280;11895;48.738;9.320;2023-05-16T12:03:31;98641.97;;;16.84;100.00
23446;BME280;11895;48.738;9.320;2023-05-16T12:06:02;98635.38;;;16.62;100.00
23446;BME280;11895;48.738;9.320;2023-05-16T12:08:29;98648.38;;;16.46;100.00
23446;BME280;11895;48.738;9.320;2023-05-16T12:10:57;98642.00;;;16.58;100.00
23446;BME280;11895;48.738;9.320;2023-05-16T12:13:25;98645.56;;;16.35;100.00
23446;BME280;11895;48.738;9.320;2023-05-16T12:15:53;98653.84;;;16.21;100.00
23446;BME280;11895;48.738;9.320;2023-05-16T12:18:22;98651.63;;;16.51;100.00
23446;BME280;11895;48.738;9.320;2023-05-16T12:20:50;98652.41;;;16.90;100.00
23446;BME280;11895;48.738;9.320;2023-05-16T12:23:20;98660.88;;;16.98;100.00
23446;BME280;11895;48.738;9.320;2023-05-16T12:25:49;98660.72;;;16.76;100.00
23446;BME280;11895;48.738;9.320;2023-05-16T12:28:17;98657.00;;;16.77;100.00
23446;BME280;11895;48.738;9.320;2023-05-16T12:30:44;98661.03;;;16.71;100.00
23446;BME280;11895;48.738;9.320;2023-05-16T12:33:15;98670.72;;;16.62;100.00
23446;BME280;11895;48.738;9.320;2023-05-16T12:35:45;98672.91;;;16.57;100.00
23446;BME280;11895;48.738;9.320;2023-05-16T12:38:14;98662.56;;;16.75;100.00
23446;BME280;11895;48.738;9.320;2023-05-16T12:40:44;98665.53;;;16.59;100.00
23446;BME280;11895;48.738;9.320;2023-05-16T12:43:18;98663.66;;;16.73;100.00
23446;BME280;11895;48.738;9.320;2023-05-16T12:45:52;98663.09;;;16.67;100.00
23446;BME280;11895;48.738;9.320;2023-05-16T12:48:22;98655.84;;;16.92;100.00
23446;BME280;11895;48.738;9.320;2023-05-16T12:50:50;98662.94;;;17.18;100.00
23446;BME280;11895;48.738;9.320;2023-05-16T12:53:19;98662.59;;;17.58;100.00
23446;BME280;11895;48.738;9.320;2023-05-16T12:55:47;98659.31;;;17.42;100.00
23446;BME280;11895;48.738;9.320;2023-05-16T12:58:14;98668.38;;;17.18;100.00
23446;BME280;11895;48.738;9.320;2023-05-16T13:00:44;98672.38;;;17.61;100.00
23446;BME280;11895;48.738;9.320;2023-05-16T13:03:11;98664.69;;;17.90;100.00
23446;BME280;11895;48.738;9.320;2023-05-16T13:05:39;98669.69;;;18.18;100.00
23446;BME280;11895;48.738;9.320;2023-05-16T13:08:07;98670.69;;;18.29;100.00
23446;BME280;11895;48.738;9.320;2023-05-16T13:10:34;98675.00;;;18.54;100.00
23446;BME280;11895;48.738;9.320;2023-05-16T13:13:02;98682.28;;;18.08;100.00
23446;BME280;11895;48.738;9.320;2023-05-16T13:15:30;98674.38;;;18.05;100.00
23446;BME280;11895;48.738;9.320;2023-05-16T13:17:58;98682.66;;;17.92;100.00
23446;BME280;11895;48.738;9.320;2023-05-16T13:20:25;98685.00;;;17.86;100.00
23446;BME280;11895;48.738;9.320;2023-05-16T13:22:53;98690.72;;;18.05;100.00
23446;BME280;11895;48.738;9.320;2023-05-16T13:25:25;98687.25;;;18.03;100.00
23446;BME280;11895;48.738;9.320;2023-05-16T13:27:54;98686.78;;;18.32;100.00
23446;BME280;11895;48.738;9.320;2023-05-16T13:30:25;98689.94;;;17.81;100.00
23446;BME280;11895;48.738;9.320;2023-05-16T13:32:55;98696.81;;;17.38;100.00
23446;BME280;11895;48.738;9.320;2023-05-16T13:35:22;98685.19;;;17.12;100.00
23446;BME280;11895;48.738;9.320;2023-05-16T13:37:50;98690.34;;;16.42;100.00
23446;BME280;11895;48.738;9.320;2023-05-16T13:40:17;98698.78;;;16.76;100.00
23446;BME280;11895;48.738;9.320;2023-05-16T13:42:45;98690.78;;;16.98;100.00
23446;BME280;11895;48.738;9.320;2023-05-16T13:45:12;98686.47;;;17.31;100.00
23446;BME280;11895;48.738;9.320;2023-05-16T13:47:40;98702.22;;;17.27;100.00
23446;BME280;11895;48.738;9.320;2023-05-16T13:50:07;98709.03;;;17.33;100.00
23446;BME280;11895;48.738;9.320;2023-05-16T13:52:37;98694.28;;;17.59;100.00
23446;BME280;11895;48.738;9.320;2023-05-16T13:55:05;98694.03;;;17.27;100.00
23446;BME280;11895;48.738;9.320;2023-05-16T13:57:34;98707.50;;;17.05;100.00
23446;BME280;11895;48.738;9.320;2023-05-16T14:00:02;98697.16;;;17.10;100.00